createdAt,value
2017-05-16T00:00:50.146Z,1022.11
2017-05-16T00:01:51.780Z,1022.11
2017-05-16T00:02:53.382Z,1022.10
2017-05-16T00:03:55.092Z,1022.09
2017-05-16T00:04:56.709Z,1022.10
2017-05-16T00:05:58.350Z,1022.11
2017-05-16T00:06:59.943Z,1022.11
2017-05-16T00:08:01.617Z,1022.13
2017-05-16T00:09:03.310Z,1022.11
2017-05-16T00:10:04.932Z,1022.13
2017-05-16T00:11:06.562Z,1022.10
2017-05-16T00:12:08.157Z,1022.09
2017-05-16T00:13:09.800Z,1022.10
2017-05-16T00:14:11.497Z,1022.11
2017-05-16T00:15:13.101Z,1022.08
2017-05-16T00:16:14.727Z,1022.07
2017-05-16T00:17:16.378Z,1022.04
2017-05-16T00:18:17.988Z,1022.02
2017-05-16T00:19:19.638Z,1022.03
2017-05-16T00:20:21.280Z,1022.05
2017-05-16T00:21:22.929Z,1022.03
2017-05-16T00:22:24.555Z,1022.02
2017-05-16T00:23:26.245Z,1022.00
2017-05-16T00:24:27.998Z,1021.99
2017-05-16T00:25:29.648Z,1021.99
2017-05-16T00:26:31.302Z,1021.97
2017-05-16T00:27:32.949Z,1022.00
2017-05-16T00:28:34.653Z,1021.97
2017-05-16T00:29:36.397Z,1021.94
2017-05-16T00:30:38.107Z,1022.00
2017-05-16T00:31:39.825Z,1021.94
2017-05-16T00:32:41.473Z,1021.91
2017-05-16T00:33:43.120Z,1021.92
2017-05-16T00:34:44.892Z,1021.91
2017-05-16T00:35:46.574Z,1021.94
2017-05-16T00:37:27.685Z,1021.66
2017-05-16T00:39:08.849Z,1021.50
2017-05-16T00:40:10.503Z,1021.75
2017-05-16T00:41:12.141Z,1021.85
2017-05-16T00:42:13.743Z,1021.91
2017-05-16T00:43:15.393Z,1021.90
2017-05-16T00:44:17.089Z,1021.90
2017-05-16T00:45:18.775Z,1021.91
2017-05-16T00:46:20.413Z,1021.93
2017-05-16T00:47:22.066Z,1021.90
2017-05-16T00:48:23.685Z,1021.93
2017-05-16T00:49:25.410Z,1021.89
2017-05-16T00:50:27.046Z,1021.90
2017-05-16T00:51:28.701Z,1021.91
2017-05-16T00:52:30.311Z,1021.88
2017-05-16T00:53:31.940Z,1021.88
2017-05-16T00:54:33.637Z,1021.83
2017-05-16T00:55:35.296Z,1021.87
2017-05-16T00:56:36.895Z,1021.83
2017-05-16T00:57:38.593Z,1021.85
2017-05-16T00:58:40.280Z,1021.83
2017-05-16T00:59:41.998Z,1021.84
2017-05-16T01:00:43.699Z,1021.85
2017-05-16T01:01:45.343Z,1021.82
2017-05-16T01:02:46.999Z,1021.82
2017-05-16T01:03:48.666Z,1021.78
2017-05-16T01:04:50.389Z,1021.80
2017-05-16T01:05:52.138Z,1021.79
2017-05-16T01:08:52.985Z,1021.69
2017-05-16T01:09:54.642Z,1021.74
2017-05-16T01:10:56.274Z,1021.78
2017-05-16T01:11:57.917Z,1021.80
2017-05-16T01:12:59.508Z,1021.78
2017-05-16T01:14:01.250Z,1021.80
2017-05-16T01:15:02.879Z,1021.78
2017-05-16T01:16:04.533Z,1021.77
2017-05-16T01:17:06.197Z,1021.74
2017-05-16T01:18:07.821Z,1021.76
2017-05-16T01:19:09.481Z,1021.73
2017-05-16T01:20:11.137Z,1021.72
2017-05-16T01:21:12.772Z,1021.71
2017-05-16T01:22:14.429Z,1021.64
2017-05-16T01:23:16.214Z,1021.65
2017-05-16T01:24:17.840Z,1021.65
2017-05-16T01:25:19.495Z,1021.62
2017-05-16T01:26:21.105Z,1021.62
2017-05-16T01:27:22.698Z,1021.60
2017-05-16T01:28:24.322Z,1021.59
2017-05-16T01:29:25.957Z,1021.56
2017-05-16T01:30:27.598Z,1021.59
2017-05-16T01:32:09.163Z,1021.26
2017-05-16T01:33:10.756Z,1021.41
2017-05-16T01:34:12.359Z,1021.48
2017-05-16T01:35:13.958Z,1021.56
2017-05-16T01:36:15.601Z,1021.61
2017-05-16T01:37:17.300Z,1021.56
2017-05-16T01:38:18.984Z,1021.55
2017-05-16T01:39:20.612Z,1021.54
2017-05-16T01:40:22.283Z,1021.55
2017-05-16T01:41:23.925Z,1021.53
2017-05-16T01:42:25.607Z,1021.53
2017-05-16T01:43:27.243Z,1021.52
2017-05-16T01:44:28.951Z,1021.52
2017-05-16T01:45:30.609Z,1021.52
2017-05-16T01:46:32.274Z,1021.47
2017-05-16T01:47:33.977Z,1021.50
2017-05-16T01:48:35.694Z,1021.45
2017-05-16T01:49:37.360Z,1021.45
2017-05-16T01:50:39.021Z,1021.43
2017-05-16T01:51:40.688Z,1021.43
2017-05-16T01:52:42.402Z,1021.45
2017-05-16T01:53:44.071Z,1021.43
2017-05-16T01:54:45.678Z,1021.40
2017-05-16T01:55:47.320Z,1021.40
2017-05-16T01:56:48.969Z,1021.40
2017-05-16T01:57:50.658Z,1021.38
2017-05-16T01:58:52.360Z,1021.38
2017-05-16T01:59:53.971Z,1021.38
2017-05-16T02:00:55.634Z,1021.35
2017-05-16T02:01:57.254Z,1021.32
2017-05-16T02:02:58.985Z,1021.35
2017-05-16T02:04:00.608Z,1021.33
2017-05-16T02:05:02.212Z,1021.34
2017-05-16T02:06:03.820Z,1021.36
2017-05-16T02:07:05.530Z,1021.32
2017-05-16T02:08:07.225Z,1021.34
2017-05-16T02:09:08.910Z,1021.37
2017-05-16T02:10:10.764Z,1021.35
2017-05-16T02:11:12.491Z,1021.35
2017-05-16T02:12:14.126Z,1021.34
2017-05-16T02:13:15.821Z,1021.33
2017-05-16T02:14:17.568Z,1021.28
2017-05-16T02:15:19.209Z,1021.33
2017-05-16T02:16:20.860Z,1021.30
2017-05-16T02:17:22.524Z,1021.28
2017-05-16T02:18:24.298Z,1021.27
2017-05-16T02:19:26.017Z,1021.27
2017-05-16T02:21:07.218Z,1021.00
2017-05-16T02:22:09.018Z,1021.16
2017-05-16T02:23:50.157Z,1020.94
2017-05-16T02:24:51.837Z,1021.16
2017-05-16T02:25:53.500Z,1021.26
2017-05-16T02:26:55.151Z,1021.38
2017-05-16T02:27:56.818Z,1021.38
2017-05-16T02:28:58.568Z,1021.39
2017-05-16T02:30:00.256Z,1021.40
2017-05-16T02:31:01.908Z,1021.40
2017-05-16T02:32:03.557Z,1021.44
2017-05-16T02:33:05.220Z,1021.41
2017-05-16T02:34:46.439Z,1021.12
2017-05-16T02:35:48.091Z,1021.32
2017-05-16T02:36:49.883Z,1021.36
2017-05-16T02:37:51.578Z,1021.39
2017-05-16T02:38:53.249Z,1021.44
2017-05-16T02:39:55.000Z,1021.42
2017-05-16T02:40:56.665Z,1021.43
2017-05-16T02:41:58.320Z,1021.43
2017-05-16T02:43:00.003Z,1021.43
2017-05-16T02:44:01.679Z,1021.39
2017-05-16T02:45:03.501Z,1021.36
2017-05-16T02:46:05.144Z,1021.39
2017-05-16T02:47:06.821Z,1021.35
2017-05-16T02:48:08.440Z,1021.36
2017-05-16T02:49:10.141Z,1021.36
2017-05-16T02:50:11.839Z,1021.36
2017-05-16T02:51:13.482Z,1021.37
2017-05-16T02:52:15.103Z,1021.36
2017-05-16T02:53:16.762Z,1021.30
2017-05-16T02:54:18.469Z,1021.31
2017-05-16T02:55:20.249Z,1021.31
2017-05-16T02:56:21.941Z,1021.30
2017-05-16T02:57:23.628Z,1021.30
2017-05-16T02:58:25.302Z,1021.30
2017-05-16T02:59:27.042Z,1021.34
2017-05-16T03:00:28.748Z,1021.28
2017-05-16T03:01:30.425Z,1021.34
2017-05-16T03:02:32.073Z,1021.30
2017-05-16T03:03:33.718Z,1021.30
2017-05-16T03:04:35.448Z,1021.26
2017-05-16T03:05:37.215Z,1021.30
2017-05-16T03:06:38.874Z,1021.23
2017-05-16T03:07:40.475Z,1021.25
2017-05-16T03:08:42.082Z,1021.21
2017-05-16T03:09:43.738Z,1021.24
2017-05-16T03:10:45.425Z,1021.20
2017-05-16T03:11:47.074Z,1021.21
2017-05-16T03:12:48.715Z,1021.21
2017-05-16T03:13:50.333Z,1021.22
2017-05-16T03:14:52.032Z,1021.26
2017-05-16T03:16:33.186Z,1021.03
2017-05-16T03:18:15.291Z,1020.86
2017-05-16T03:19:16.970Z,1021.15
2017-05-16T03:20:18.574Z,1021.25
2017-05-16T03:21:20.148Z,1021.30
2017-05-16T03:22:21.919Z,1021.33
2017-05-16T03:23:23.537Z,1021.37
2017-05-16T03:24:25.185Z,1021.34
2017-05-16T03:25:26.836Z,1021.37
2017-05-16T03:26:28.534Z,1021.37
2017-05-16T03:27:30.175Z,1021.38
2017-05-16T03:28:31.931Z,1021.38
2017-05-16T03:29:33.553Z,1021.39
2017-05-16T03:30:35.137Z,1021.35
2017-05-16T03:31:36.811Z,1021.37
2017-05-16T03:33:18.045Z,1021.10
2017-05-16T03:34:19.689Z,1021.31
2017-05-16T03:35:21.323Z,1021.38
2017-05-16T03:36:22.940Z,1021.40
2017-05-16T03:37:24.587Z,1021.44
2017-05-16T03:38:26.336Z,1021.40
2017-05-16T03:39:28.038Z,1021.41
2017-05-16T03:40:29.692Z,1021.41
2017-05-16T03:41:31.367Z,1021.44
2017-05-16T03:42:33.050Z,1021.41
2017-05-16T03:43:34.776Z,1021.37
2017-05-16T03:44:36.440Z,1021.36
2017-05-16T03:45:38.031Z,1021.37
2017-05-16T03:46:39.733Z,1021.33
2017-05-16T03:47:41.443Z,1021.39
2017-05-16T03:48:43.188Z,1021.34
2017-05-16T03:49:44.866Z,1021.34
2017-05-16T03:50:46.579Z,1021.36
2017-05-16T03:51:48.261Z,1021.34
2017-05-16T03:52:49.949Z,1021.32
2017-05-16T03:53:51.715Z,1021.35
2017-05-16T03:54:53.423Z,1021.29
2017-05-16T03:55:55.155Z,1021.31
2017-05-16T03:56:56.898Z,1021.33
2017-05-16T03:57:58.586Z,1021.31
2017-05-16T03:59:00.318Z,1021.30
2017-05-16T04:00:02.627Z,1021.32
2017-05-16T04:01:04.393Z,1021.27
2017-05-16T04:02:06.354Z,1021.27
2017-05-16T04:03:08.047Z,1021.29
2017-05-16T04:04:09.761Z,1021.28
2017-05-16T04:05:11.461Z,1021.25
2017-05-16T04:06:13.133Z,1021.27
2017-05-16T04:07:14.799Z,1021.28
2017-05-16T04:08:56.064Z,1021.00
2017-05-16T04:09:57.731Z,1021.15
2017-05-16T04:10:59.389Z,1021.23
2017-05-16T04:12:01.063Z,1021.26
2017-05-16T04:13:02.768Z,1021.29
2017-05-16T04:14:04.537Z,1021.29
2017-05-16T04:15:06.215Z,1021.31
2017-05-16T04:16:07.835Z,1021.30
2017-05-16T04:17:09.479Z,1021.32
2017-05-16T04:18:11.107Z,1021.30
2017-05-16T04:19:12.812Z,1021.29
2017-05-16T04:20:14.453Z,1021.31
2017-05-16T04:21:16.058Z,1021.31
2017-05-16T04:22:17.699Z,1021.27
2017-05-16T04:23:19.339Z,1021.33
2017-05-16T04:24:21.089Z,1021.30
2017-05-16T04:25:22.709Z,1021.30
2017-05-16T04:26:24.415Z,1021.31
2017-05-16T04:27:26.199Z,1021.31
2017-05-16T04:28:27.877Z,1021.28
2017-05-16T04:29:29.605Z,1021.26
2017-05-16T04:30:31.245Z,1021.24
2017-05-16T04:31:32.938Z,1021.28
2017-05-16T04:32:34.614Z,1021.26
2017-05-16T04:33:36.204Z,1021.27
2017-05-16T04:34:37.894Z,1021.26
2017-05-16T04:35:39.544Z,1021.27
2017-05-16T04:36:41.143Z,1021.25
2017-05-16T04:37:42.785Z,1021.27
2017-05-16T04:38:44.426Z,1021.31
2017-05-16T04:39:46.158Z,1021.29
2017-05-16T04:40:47.936Z,1021.31
2017-05-16T04:41:49.576Z,1021.25
2017-05-16T04:42:51.262Z,1021.32
2017-05-16T04:43:52.876Z,1021.30
2017-05-16T04:45:34.053Z,1021.05
2017-05-16T04:47:16.721Z,1021.05
2017-05-16T04:48:18.405Z,1021.22
2017-05-16T04:49:20.067Z,1021.26
2017-05-16T04:50:21.680Z,1021.31
2017-05-16T04:51:23.333Z,1021.34
2017-05-16T04:52:25.435Z,1021.35
2017-05-16T04:53:27.127Z,1021.40
2017-05-16T04:54:28.762Z,1021.36
2017-05-16T04:55:30.372Z,1021.37
2017-05-16T04:56:31.989Z,1021.40
2017-05-16T04:57:33.686Z,1021.39
2017-05-16T04:58:38.331Z,1021.39
2017-05-16T04:59:40.059Z,1021.40
2017-05-16T05:00:43.622Z,1021.38
2017-05-16T05:02:24.730Z,1021.11
2017-05-16T05:03:26.358Z,1021.28
2017-05-16T05:04:30.462Z,1021.41
2017-05-16T05:05:32.130Z,1021.42
2017-05-16T05:06:33.760Z,1021.41
2017-05-16T05:07:35.555Z,1021.40
2017-05-16T05:08:37.236Z,1021.42
2017-05-16T05:09:38.931Z,1021.44
2017-05-16T05:10:40.653Z,1021.41
2017-05-16T05:11:42.342Z,1021.45
2017-05-16T05:12:44.042Z,1021.43
2017-05-16T05:13:45.781Z,1021.41
2017-05-16T05:14:47.653Z,1021.42
2017-05-16T05:15:49.329Z,1021.42
2017-05-16T05:16:50.988Z,1021.40
2017-05-16T05:17:52.701Z,1021.42
2017-05-16T05:18:54.437Z,1021.43
2017-05-16T05:19:56.878Z,1021.43
2017-05-16T05:20:58.622Z,1021.37
2017-05-16T05:22:00.342Z,1021.37
2017-05-16T05:23:02.005Z,1021.41
2017-05-16T05:24:03.711Z,1021.37
2017-05-16T05:25:05.424Z,1021.43
2017-05-16T05:26:07.168Z,1021.41
2017-05-16T05:27:08.897Z,1021.44
2017-05-16T05:28:10.608Z,1021.39
2017-05-16T05:29:12.264Z,1021.42
2017-05-16T05:30:13.891Z,1021.41
2017-05-16T05:31:15.603Z,1021.42
2017-05-16T05:32:17.337Z,1021.42
2017-05-16T05:33:19.033Z,1021.43
2017-05-16T05:34:20.725Z,1021.45
2017-05-16T05:35:22.563Z,1021.44
2017-05-16T05:36:24.262Z,1021.47
2017-05-16T05:37:26.019Z,1021.46
2017-05-16T05:38:27.718Z,1021.51
2017-05-16T05:39:29.416Z,1021.49
2017-05-16T05:40:31.130Z,1021.50
2017-05-16T05:41:32.820Z,1021.55
2017-05-16T05:42:34.575Z,1021.58
2017-05-16T05:43:36.269Z,1021.54
2017-05-16T05:44:37.956Z,1021.51
2017-05-16T05:45:39.644Z,1021.50
2017-05-16T05:46:41.381Z,1021.53
2017-05-16T05:47:43.090Z,1021.55
2017-05-16T05:48:44.773Z,1021.49
2017-05-16T05:49:46.434Z,1021.54
2017-05-16T05:50:48.182Z,1021.55
2017-05-16T05:51:49.886Z,1021.53
2017-05-16T05:52:51.654Z,1021.58
2017-05-16T05:53:53.375Z,1021.54
2017-05-16T05:55:34.810Z,1021.38
2017-05-16T05:56:36.484Z,1021.52
2017-05-16T05:57:38.181Z,1021.53
2017-05-16T05:59:19.303Z,1021.29
2017-05-16T06:00:21.071Z,1021.46
2017-05-16T06:01:22.775Z,1021.57
2017-05-16T06:02:24.389Z,1021.60
2017-05-16T06:03:26.086Z,1021.63
2017-05-16T06:04:27.852Z,1021.64
2017-05-16T06:05:29.497Z,1021.63
2017-05-16T06:06:31.124Z,1021.62
2017-05-16T06:07:32.768Z,1021.62
2017-05-16T06:08:34.435Z,1021.58
2017-05-16T06:09:36.169Z,1021.60
2017-05-16T06:10:37.914Z,1021.61
2017-05-16T06:11:39.568Z,1021.58
2017-05-16T06:12:41.918Z,1021.55
2017-05-16T06:13:43.560Z,1021.54
2017-05-16T06:14:45.261Z,1021.51
2017-05-16T06:15:46.927Z,1021.51
2017-05-16T06:16:48.650Z,1021.50
2017-05-16T06:17:50.385Z,1021.52
2017-05-16T06:18:52.080Z,1021.56
2017-05-16T06:19:53.769Z,1021.53
2017-05-16T06:20:55.420Z,1021.55
2017-05-16T06:21:57.116Z,1021.52
2017-05-16T06:22:58.846Z,1021.51
2017-05-16T06:24:00.535Z,1021.55
2017-05-16T06:25:02.245Z,1021.51
2017-05-16T06:26:03.901Z,1021.54
2017-05-16T06:27:05.578Z,1021.53
2017-05-16T06:28:07.240Z,1021.57
2017-05-16T06:29:08.910Z,1021.60
2017-05-16T06:30:10.635Z,1021.60
2017-05-16T06:31:12.301Z,1021.59
2017-05-16T06:32:14.017Z,1021.59
2017-05-16T06:33:15.787Z,1021.63
2017-05-16T06:34:17.406Z,1021.61
2017-05-16T06:35:19.182Z,1021.61
2017-05-16T06:36:20.875Z,1021.62
2017-05-16T06:37:22.574Z,1021.63
2017-05-16T06:38:24.211Z,1021.63
2017-05-16T06:39:25.799Z,1021.63
2017-05-16T06:40:27.647Z,1021.64
2017-05-16T06:41:29.296Z,1021.63
2017-05-16T06:42:30.977Z,1021.62
2017-05-16T06:43:32.656Z,1021.66
2017-05-16T06:44:34.370Z,1021.70
2017-05-16T06:45:36.184Z,1021.70
2017-05-16T06:47:17.365Z,1021.46
2017-05-16T06:48:58.565Z,1021.35
2017-05-16T06:50:00.213Z,1021.58
2017-05-16T06:51:01.868Z,1021.72
2017-05-16T06:52:03.600Z,1021.76
2017-05-16T06:53:05.322Z,1021.79
2017-05-16T06:54:07.072Z,1021.85
2017-05-16T06:55:08.804Z,1021.90
2017-05-16T06:56:10.475Z,1021.94
2017-05-16T06:57:12.118Z,1021.96
2017-05-16T06:58:13.790Z,1021.98
2017-05-16T06:59:15.588Z,1021.97
2017-05-16T07:00:17.292Z,1022.00
2017-05-16T07:01:19.001Z,1022.03
2017-05-16T07:02:20.669Z,1022.07
2017-05-16T07:03:22.354Z,1022.06
2017-05-16T07:04:24.091Z,1022.03
2017-05-16T07:05:25.779Z,1022.02
2017-05-16T07:06:27.504Z,1021.96
2017-05-16T07:07:29.253Z,1021.96
2017-05-16T07:08:30.967Z,1021.93
2017-05-16T07:09:32.698Z,1021.95
2017-05-16T07:10:34.370Z,1021.87
2017-05-16T07:11:36.073Z,1021.90
2017-05-16T07:13:17.297Z,1021.63
2017-05-16T07:14:19.234Z,1021.82
2017-05-16T07:15:20.912Z,1021.88
2017-05-16T07:16:22.633Z,1021.96
2017-05-16T07:17:24.378Z,1021.98
2017-05-16T07:18:26.171Z,1021.98
2017-05-16T07:19:27.879Z,1022.03
2017-05-16T07:20:29.529Z,1022.07
2017-05-16T07:21:31.171Z,1022.13
2017-05-16T07:22:32.853Z,1022.09
2017-05-16T07:23:34.552Z,1022.09
2017-05-16T07:24:36.220Z,1022.09
2017-05-16T07:25:37.917Z,1022.08
2017-05-16T07:26:39.595Z,1022.09
2017-05-16T07:27:41.311Z,1022.08
2017-05-16T07:28:43.147Z,1022.06
2017-05-16T07:29:44.860Z,1022.05
2017-05-16T07:30:46.544Z,1022.07
2017-05-16T07:31:48.238Z,1022.07
2017-05-16T07:32:50.069Z,1022.07
2017-05-16T07:33:51.827Z,1022.17
2017-05-16T07:34:53.490Z,1022.18
2017-05-16T07:35:55.167Z,1022.22
2017-05-16T07:36:56.860Z,1022.21
2017-05-16T07:37:58.531Z,1022.24
2017-05-16T07:39:39.755Z,1022.06
2017-05-16T07:40:41.486Z,1022.16
2017-05-16T07:41:43.257Z,1022.26
2017-05-16T07:42:44.941Z,1022.27
2017-05-16T07:43:46.568Z,1022.24
2017-05-16T07:44:48.258Z,1022.21
2017-05-16T07:45:49.965Z,1022.15
2017-05-16T07:46:51.580Z,1022.09
2017-05-16T07:47:53.262Z,1022.10
2017-05-16T07:48:54.935Z,1022.13
2017-05-16T07:49:56.599Z,1022.09
2017-05-16T07:50:58.251Z,1022.07
2017-05-16T07:51:59.863Z,1022.05
2017-05-16T07:53:01.530Z,1022.01
2017-05-16T07:54:03.191Z,1022.01
2017-05-16T07:55:04.923Z,1021.99
2017-05-16T07:56:06.576Z,1021.94
2017-05-16T07:57:08.365Z,1021.95
2017-05-16T07:58:09.988Z,1021.95
2017-05-16T07:59:11.637Z,1021.97
2017-05-16T08:00:13.374Z,1022.02
2017-05-16T08:01:15.015Z,1022.03
2017-05-16T08:02:16.696Z,1022.05
2017-05-16T08:03:18.340Z,1022.07
2017-05-16T08:04:20.007Z,1022.10
2017-05-16T08:05:21.757Z,1022.13
2017-05-16T08:06:23.493Z,1022.12
2017-05-16T08:07:25.249Z,1022.13
2017-05-16T08:08:26.903Z,1022.10
2017-05-16T08:09:28.562Z,1022.10
2017-05-16T08:10:30.258Z,1022.10
2017-05-16T08:11:32.110Z,1022.08
2017-05-16T08:12:33.827Z,1022.12
2017-05-16T08:13:35.424Z,1022.07
2017-05-16T08:14:37.079Z,1022.06
2017-05-16T08:15:38.757Z,1022.06
2017-05-16T08:16:40.363Z,1022.07
2017-05-16T08:17:42.059Z,1022.00
2017-05-16T08:18:43.696Z,1022.02
2017-05-16T08:19:45.410Z,1022.00
2017-05-16T08:20:47.092Z,1022.01
2017-05-16T08:21:48.829Z,1022.03
2017-05-16T08:22:50.515Z,1022.09
2017-05-16T08:23:52.133Z,1022.20
2017-05-16T08:24:53.789Z,1022.24
2017-05-16T08:25:55.504Z,1022.33
2017-05-16T08:26:57.215Z,1022.34
2017-05-16T08:27:58.907Z,1022.33
2017-05-16T08:29:00.554Z,1022.34
2017-05-16T08:30:02.267Z,1022.36
2017-05-16T08:31:03.982Z,1022.37
2017-05-16T08:32:05.590Z,1022.34
2017-05-16T08:33:07.262Z,1022.34
2017-05-16T08:34:08.908Z,1022.36
2017-05-16T08:35:10.695Z,1022.36
2017-05-16T08:36:12.355Z,1022.46
2017-05-16T08:37:14.020Z,1022.56
2017-05-16T08:38:15.773Z,1022.64
2017-05-16T08:39:17.438Z,1022.60
2017-05-16T08:40:19.118Z,1022.55
2017-05-16T08:41:20.830Z,1022.47
2017-05-16T08:42:22.507Z,1022.47
2017-05-16T08:43:24.335Z,1022.52
2017-05-16T08:44:26.020Z,1022.56
2017-05-16T08:45:27.718Z,1022.58
2017-05-16T08:46:29.517Z,1022.61
2017-05-16T08:47:31.177Z,1022.62
2017-05-16T08:48:32.817Z,1022.68
2017-05-16T08:49:34.493Z,1022.73
2017-05-16T08:50:36.136Z,1022.88
2017-05-16T08:51:37.881Z,1023.07
2017-05-16T08:52:39.551Z,1023.37
2017-05-16T08:53:41.189Z,1023.92
2017-05-16T08:54:42.904Z,1023.97
2017-05-16T08:55:44.577Z,1024.11
2017-05-16T08:56:46.340Z,1023.11
2017-05-16T08:57:47.986Z,1022.80
2017-05-16T08:58:49.693Z,1023.12
2017-05-16T08:59:51.405Z,1022.87
2017-05-16T09:00:53.013Z,1022.93
2017-05-16T09:01:54.715Z,1022.70
2017-05-16T09:02:56.457Z,1022.49
2017-05-16T09:03:58.127Z,1022.27
2017-05-16T09:04:59.900Z,1022.19
2017-05-16T09:06:01.565Z,1022.25
2017-05-16T09:07:03.308Z,1022.26
2017-05-16T09:08:05.035Z,1022.25
2017-05-16T09:09:06.700Z,1022.35
2017-05-16T09:10:08.371Z,1022.41
2017-05-16T09:11:09.991Z,1022.44
2017-05-16T09:12:11.829Z,1022.50
2017-05-16T09:13:13.473Z,1022.64
2017-05-16T09:14:15.134Z,1022.51
2017-05-16T09:15:16.784Z,1022.32
2017-05-16T09:16:18.425Z,1022.19
2017-05-16T09:17:20.238Z,1022.40
2017-05-16T09:18:21.887Z,1022.70
2017-05-16T09:19:23.560Z,1022.56
2017-05-16T09:20:25.256Z,1023.08
2017-05-16T09:21:26.903Z,1023.25
2017-05-16T09:22:28.619Z,1022.31
2017-05-16T09:23:30.261Z,1021.95
2017-05-16T09:25:11.361Z,1021.57
2017-05-16T09:26:13.115Z,1021.67
2017-05-16T09:27:14.749Z,1021.75
2017-05-16T09:28:16.372Z,1021.88
2017-05-16T09:29:18.038Z,1021.95
2017-05-16T09:30:19.834Z,1022.13
2017-05-16T09:31:21.435Z,1022.26
2017-05-16T09:32:23.101Z,1022.47
2017-05-16T09:33:24.718Z,1022.65
2017-05-16T09:34:26.455Z,1023.16
2017-05-16T09:35:28.147Z,1022.75
2017-05-16T09:37:09.334Z,1022.76
2017-05-16T09:38:51.486Z,1023.53
2017-05-16T09:39:53.088Z,1022.82
2017-05-16T09:40:54.712Z,1022.18
2017-05-16T09:41:56.262Z,1021.95
2017-05-16T09:42:57.891Z,1021.85
2017-05-16T09:43:59.482Z,1021.67
2017-05-16T09:45:01.114Z,1021.65
2017-05-16T09:46:02.706Z,1021.59
2017-05-16T09:47:04.359Z,1021.57
2017-05-16T09:48:05.967Z,1021.50
2017-05-16T09:49:07.681Z,1021.50
2017-05-16T09:50:09.247Z,1021.51
2017-05-16T09:51:10.860Z,1021.42
2017-05-16T09:52:12.528Z,1021.37
2017-05-16T09:53:14.166Z,1021.36
2017-05-16T09:54:15.868Z,1021.30
2017-05-16T09:55:17.544Z,1021.26
2017-05-16T09:56:19.170Z,1021.29
2017-05-16T09:57:20.798Z,1021.36
2017-05-16T09:58:22.408Z,1021.47
2017-05-16T09:59:24.900Z,1021.66
2017-05-16T10:00:26.511Z,1021.78
2017-05-16T10:01:28.177Z,1021.96
2017-05-16T10:02:29.861Z,1021.98
2017-05-16T10:03:31.484Z,1022.00
2017-05-16T10:04:33.249Z,1021.91
2017-05-16T10:05:34.889Z,1021.87
2017-05-16T10:06:36.501Z,1021.84
2017-05-16T10:07:38.151Z,1021.78
2017-05-16T10:08:39.786Z,1021.76
2017-05-16T10:09:41.502Z,1021.71
2017-05-16T10:10:43.232Z,1021.63
2017-05-16T10:11:44.896Z,1021.56
2017-05-16T10:12:46.554Z,1021.47
2017-05-16T10:13:48.355Z,1021.43
2017-05-16T10:14:50.113Z,1021.43
2017-05-16T10:15:51.800Z,1021.48
2017-05-16T10:17:33.134Z,1021.29
2017-05-16T10:18:34.811Z,1021.51
2017-05-16T10:19:36.463Z,1021.66
2017-05-16T10:20:38.162Z,1021.72
2017-05-16T10:21:39.849Z,1021.77
2017-05-16T10:22:41.606Z,1021.81
2017-05-16T10:23:43.256Z,1021.86
2017-05-16T10:24:44.948Z,1021.96
2017-05-16T10:25:46.636Z,1021.95
2017-05-16T10:26:48.413Z,1021.90
2017-05-16T10:27:50.151Z,1021.86
2017-05-16T10:28:51.831Z,1021.79
2017-05-16T10:29:53.502Z,1021.73
2017-05-16T10:30:55.256Z,1021.68
2017-05-16T10:31:56.984Z,1021.60
2017-05-16T10:32:58.729Z,1021.60
2017-05-16T10:34:00.450Z,1021.55
2017-05-16T10:35:02.105Z,1021.51
2017-05-16T10:36:43.433Z,1021.53
2017-05-16T10:37:45.154Z,1021.57
2017-05-16T10:38:46.797Z,1021.62
2017-05-16T10:39:48.526Z,1021.62
2017-05-16T10:40:50.143Z,1021.67
2017-05-16T10:41:51.879Z,1021.70
2017-05-16T10:42:53.852Z,1021.77
2017-05-16T10:43:55.471Z,1021.79
2017-05-16T10:44:57.093Z,1021.74
2017-05-16T10:45:58.738Z,1021.79
2017-05-16T10:47:00.406Z,1021.81
2017-05-16T10:48:02.017Z,1021.83
2017-05-16T10:49:03.657Z,1021.80
2017-05-16T10:50:05.300Z,1021.78
2017-05-16T10:51:06.894Z,1021.81
2017-05-16T10:52:08.544Z,1021.79
2017-05-16T10:53:10.908Z,1021.79
2017-05-16T10:54:12.582Z,1021.78
2017-05-16T10:55:14.201Z,1021.82
2017-05-16T10:56:15.795Z,1021.81
2017-05-16T10:57:17.440Z,1021.81
2017-05-16T10:58:19.081Z,1021.84
2017-05-16T10:59:20.675Z,1021.89
2017-05-16T11:00:22.301Z,1021.83
2017-05-16T11:01:23.918Z,1021.80
2017-05-16T11:02:25.658Z,1021.81
2017-05-16T11:03:27.290Z,1021.80
2017-05-16T11:04:28.943Z,1021.84
2017-05-16T11:05:30.552Z,1021.83
2017-05-16T11:06:32.232Z,1021.79
2017-05-16T11:07:33.923Z,1021.75
2017-05-16T11:08:35.542Z,1021.78
2017-05-16T11:10:16.725Z,1021.43
2017-05-16T11:11:18.369Z,1021.56
2017-05-16T11:12:19.971Z,1021.64
2017-05-16T11:13:21.605Z,1021.68
2017-05-16T11:14:23.258Z,1021.66
2017-05-16T11:15:24.921Z,1021.65
2017-05-16T11:16:26.547Z,1021.64
2017-05-16T11:17:28.177Z,1021.61
2017-05-16T11:18:29.806Z,1021.63
2017-05-16T11:19:31.457Z,1021.63
2017-05-16T11:20:33.203Z,1021.62
2017-05-16T11:21:34.854Z,1021.60
2017-05-16T11:22:36.506Z,1021.57
2017-05-16T11:23:38.176Z,1021.54
2017-05-16T11:24:39.735Z,1021.51
2017-05-16T11:25:41.448Z,1021.45
2017-05-16T11:26:43.050Z,1021.40
2017-05-16T11:27:44.722Z,1021.35
2017-05-16T11:28:46.346Z,1021.30
2017-05-16T11:29:47.985Z,1021.28
2017-05-16T11:30:49.710Z,1021.29
2017-05-16T11:31:51.388Z,1021.30
2017-05-16T11:32:53.032Z,1021.34
2017-05-16T11:33:54.703Z,1021.29
2017-05-16T11:34:56.378Z,1021.32
2017-05-16T11:35:58.094Z,1021.34
2017-05-16T11:36:59.736Z,1021.35
2017-05-16T11:38:01.352Z,1021.32
2017-05-16T11:39:02.960Z,1021.30
2017-05-16T11:40:04.606Z,1021.25
2017-05-16T11:41:06.394Z,1021.22
2017-05-16T11:42:08.088Z,1021.23
2017-05-16T11:43:09.690Z,1021.27
2017-05-16T11:44:11.353Z,1021.25
2017-05-16T11:45:13.031Z,1021.19
2017-05-16T11:46:14.822Z,1021.16
2017-05-16T11:47:16.454Z,1021.08
2017-05-16T11:48:18.139Z,1021.03
2017-05-16T11:49:19.811Z,1020.97
2017-05-16T11:50:21.560Z,1020.93
2017-05-16T11:51:23.262Z,1020.92
2017-05-16T11:52:24.900Z,1020.92
2017-05-16T11:53:26.567Z,1020.97
2017-05-16T11:54:28.253Z,1021.03
2017-05-16T11:55:29.971Z,1021.03
2017-05-16T11:56:31.732Z,1021.02
2017-05-16T11:57:33.399Z,1020.96
2017-05-16T11:58:35.111Z,1020.95
2017-05-16T11:59:36.786Z,1020.90
2017-05-16T12:01:17.931Z,1020.56
2017-05-16T12:02:19.599Z,1020.72
2017-05-16T12:03:21.253Z,1020.78
2017-05-16T12:04:22.977Z,1020.80
2017-05-16T12:05:24.638Z,1020.77
2017-05-16T12:06:26.366Z,1020.77
2017-05-16T12:07:28.028Z,1020.72
2017-05-16T12:08:29.674Z,1020.68
2017-05-16T12:09:31.335Z,1020.73
2017-05-16T12:10:32.982Z,1020.67
2017-05-16T12:11:34.691Z,1020.67
2017-05-16T12:12:36.382Z,1020.62
2017-05-16T12:13:38.072Z,1020.71
2017-05-16T12:14:39.690Z,1020.71
2017-05-16T12:15:41.379Z,1020.75
2017-05-16T12:16:43.054Z,1020.77
2017-05-16T12:17:44.677Z,1020.83
2017-05-16T12:18:46.331Z,1020.81
2017-05-16T12:19:47.968Z,1020.84
2017-05-16T12:20:49.600Z,1020.88
2017-05-16T12:21:51.304Z,1020.87
2017-05-16T12:22:52.968Z,1020.92
2017-05-16T12:23:54.699Z,1020.89
2017-05-16T12:24:56.465Z,1020.91
2017-05-16T12:25:58.181Z,1020.92
2017-05-16T12:26:59.930Z,1020.96
2017-05-16T12:28:01.617Z,1021.00
2017-05-16T12:29:03.307Z,1020.95
2017-05-16T12:30:05.061Z,1020.94
2017-05-16T12:31:06.770Z,1020.88
2017-05-16T12:32:08.473Z,1020.86
2017-05-16T12:33:10.126Z,1020.80
2017-05-16T12:34:11.781Z,1020.81
2017-05-16T12:35:13.456Z,1020.78
2017-05-16T12:36:15.185Z,1020.82
2017-05-16T12:37:16.858Z,1020.78
2017-05-16T12:38:18.519Z,1020.73
2017-05-16T12:39:20.200Z,1020.71
2017-05-16T12:40:21.821Z,1020.70
2017-05-16T12:41:23.508Z,1020.73
2017-05-16T12:42:25.161Z,1020.77
2017-05-16T12:43:26.862Z,1020.79
2017-05-16T12:44:28.519Z,1020.76
2017-05-16T12:45:30.162Z,1020.76